sensor_id;sensor_type;location;lat;lon;timestamp;pressure;altitude;pressure_sealevel;temperature;humidity
59939;BME280;45801;51.810;19.444;2023-03-14T00:01:14;97428.41;;;10.08;57.39
59939;BME280;45801;51.810;19.444;2023-03-14T00:03:42;97437.34;;;10.08;57.17
59939;BME280;45801;51.810;19.444;2023-03-14T00:06:09;97439.83;;;10.11;57.49
59939;BME280;45801;51.810;19.444;2023-03-14T00:08:37;97434.28;;;10.15;57.67
59939;BME280;45801;51.810;19.444;2023-03-14T00:13:33;97432.92;;;10.17;57.02
59939;BME280;45801;51.810;19.444;2023-03-14T00:16:10;97434.86;;;10.18;57.39
59939;BME280;45801;51.810;19.444;2023-03-14T00:18:38;97436.13;;;10.20;57.37
59939;BME280;45801;51.810;19.444;2023-03-14T00:21:06;97427.94;;;10.22;57.44
59939;BME280;45801;51.810;19.444;2023-03-14T00:23:35;97412.17;;;10.21;57.12
59939;BME280;45801;51.810;19.444;2023-03-14T00:26:05;97402.21;;;10.22;57.50
59939;BME280;45801;51.810;19.444;2023-03-14T00:28:32;97402.25;;;10.24;57.58
59939;BME280;45801;51.810;19.444;2023-03-14T00:30:58;97398.40;;;10.25;57.17
59939;BME280;45801;51.810;19.444;2023-03-14T00:33:25;97396.14;;;10.25;57.04
59939;BME280;45801;51.810;19.444;2023-03-14T00:35:56;97394.73;;;10.25;57.05
59939;BME280;45801;51.810;19.444;2023-03-14T00:38:23;97391.22;;;10.24;56.74
59939;BME280;45801;51.810;19.444;2023-03-14T00:40:51;97384.94;;;10.25;57.26
59939;BME280;45801;51.810;19.444;2023-03-14T00:43:20;97388.11;;;10.26;57.29
59939;BME280;45801;51.810;19.444;2023-03-14T00:45:50;97387.23;;;10.26;57.08
59939;BME280;45801;51.810;19.444;2023-03-14T00:48:18;97389.63;;;10.24;56.89
59939;BME280;45801;51.810;19.444;2023-03-14T00:50:46;97391.52;;;10.21;56.71
59939;BME280;45801;51.810;19.444;2023-03-14T00:53:12;97385.73;;;10.19;57.34
59939;BME280;45801;51.810;19.444;2023-03-14T00:55:40;97385.67;;;10.16;57.19
59939;BME280;45801;51.810;19.444;2023-03-14T00:58:09;97387.05;;;10.14;56.83
59939;BME280;45801;51.810;19.444;2023-03-14T01:00:36;97385.66;;;10.15;57.10
59939;BME280;45801;51.810;19.444;2023-03-14T01:03:03;97382.27;;;10.11;56.89
59939;BME280;45801;51.810;19.444;2023-03-14T01:05:30;97380.81;;;10.07;56.96
59939;BME280;45801;51.810;19.444;2023-03-14T01:07:57;97379.79;;;10.09;57.03
59939;BME280;45801;51.810;19.444;2023-03-14T01:10:23;97373.88;;;10.12;57.16
59939;BME280;45801;51.810;19.444;2023-03-14T01:12:50;97377.80;;;10.16;57.05
59939;BME280;45801;51.810;19.444;2023-03-14T01:15:17;97379.77;;;10.19;57.08
59939;BME280;45801;51.810;19.444;2023-03-14T01:17:45;97377.70;;;10.20;56.98
59939;BME280;45801;51.810;19.444;2023-03-14T01:20:13;97373.69;;;10.21;56.89
59939;BME280;45801;51.810;19.444;2023-03-14T01:22:41;97365.64;;;10.22;56.90
59939;BME280;45801;51.810;19.444;2023-03-14T01:25:11;97360.57;;;10.21;56.43
59939;BME280;45801;51.810;19.444;2023-03-14T01:27:39;97362.52;;;10.23;56.61
59939;BME280;45801;51.810;19.444;2023-03-14T01:30:06;97364.48;;;10.26;56.77
59939;BME280;45801;51.810;19.444;2023-03-14T01:32:34;97361.14;;;10.25;56.41
59939;BME280;45801;51.810;19.444;2023-03-14T01:35:00;97352.55;;;10.24;56.15
59939;BME280;45801;51.810;19.444;2023-03-14T01:37:27;97344.38;;;10.26;56.82
59939;BME280;45801;51.810;19.444;2023-03-14T01:39:53;97339.67;;;10.30;56.76
59939;BME280;45801;51.810;19.444;2023-03-14T01:42:20;97329.75;;;10.32;56.64
59939;BME280;45801;51.810;19.444;2023-03-14T01:44:56;97318.40;;;10.33;56.99
59939;BME280;45801;51.810;19.444;2023-03-14T01:47:23;97316.64;;;10.33;56.14
59939;BME280;45801;51.810;19.444;2023-03-14T01:49:58;97316.15;;;10.34;56.59
59939;BME280;45801;51.810;19.444;2023-03-14T01:52:35;97323.67;;;10.34;56.26
59939;BME280;45801;51.810;19.444;2023-03-14T01:55:07;97330.16;;;10.34;56.49
59939;BME280;45801;51.810;19.444;2023-03-14T01:57:44;97326.63;;;10.34;56.47
59939;BME280;45801;51.810;19.444;2023-03-14T02:00:17;97321.92;;;10.34;56.33
59939;BME280;45801;51.810;19.444;2023-03-14T02:02:47;97323.89;;;10.36;56.92
59939;BME280;45801;51.810;19.444;2023-03-14T02:05:26;97322.67;;;10.37;56.97
59939;BME280;45801;51.810;19.444;2023-03-14T02:07:56;97324.60;;;10.37;56.61
59939;BME280;45801;51.810;19.444;2023-03-14T02:10:28;97316.05;;;10.38;57.20
59939;BME280;45801;51.810;19.444;2023-03-14T02:12:56;97318.50;;;10.39;57.10
59939;BME280;45801;51.810;19.444;2023-03-14T02:15:25;97327.44;;;10.40;57.28
59939;BME280;45801;51.810;19.444;2023-03-14T02:17:52;97326.39;;;10.40;57.08
59939;BME280;45801;51.810;19.444;2023-03-14T02:22:51;97341.21;;;10.37;56.77
59939;BME280;45801;51.810;19.444;2023-03-14T02:25:39;97337.81;;;10.32;56.41
59939;BME280;45801;51.810;19.444;2023-03-14T02:28:10;97332.99;;;10.26;56.85
59939;BME280;45801;51.810;19.444;2023-03-14T02:30:36;97329.80;;;10.23;56.94
59939;BME280;45801;51.810;19.444;2023-03-14T02:33:06;97325.02;;;10.18;56.76
59939;BME280;45801;51.810;19.444;2023-03-14T02:35:59;97316.38;;;10.15;56.97
59939;BME280;45801;51.810;19.444;2023-03-14T02:38:37;97312.10;;;10.09;57.08
59939;BME280;45801;51.810;19.444;2023-03-14T02:41:08;97305.04;;;10.04;57.50
59939;BME280;45801;51.810;19.444;2023-03-14T02:43:34;97293.27;;;10.01;57.50
59939;BME280;45801;51.810;19.444;2023-03-14T02:46:02;97293.94;;;9.99;57.28
59939;BME280;45801;51.810;19.444;2023-03-14T02:48:31;97280.84;;;10.00;57.40
59939;BME280;45801;51.810;19.444;2023-03-14T02:51:00;97272.61;;;9.99;57.43
59939;BME280;45801;51.810;19.444;2023-03-14T02:53:32;97274.89;;;9.99;56.97
59939;BME280;45801;51.810;19.444;2023-03-14T02:55:59;97269.65;;;10.00;56.57
59939;BME280;45801;51.810;19.444;2023-03-14T02:58:26;97274.70;;;9.98;56.81
59939;BME280;45801;51.810;19.444;2023-03-14T03:00:53;97269.59;;;9.96;56.96
59939;BME280;45801;51.810;19.444;2023-03-14T03:03:20;97269.02;;;9.93;56.88
59939;BME280;45801;51.810;19.444;2023-03-14T03:05:49;97270.52;;;9.87;56.79
59939;BME280;45801;51.810;19.444;2023-03-14T03:08:18;97264.89;;;9.85;57.08
59939;BME280;45801;51.810;19.444;2023-03-14T03:10:45;97260.15;;;9.83;57.29
59939;BME280;45801;51.810;19.444;2023-03-14T03:13:12;97256.94;;;9.79;57.18
59939;BME280;45801;51.810;19.444;2023-03-14T03:15:38;97250.44;;;9.78;57.31
59939;BME280;45801;51.810;19.444;2023-03-14T03:18:06;97242.92;;;9.77;57.68
59939;BME280;45801;51.810;19.444;2023-03-14T03:20:32;97239.91;;;9.75;57.45
59939;BME280;45801;51.810;19.444;2023-03-14T03:22:59;97234.28;;;9.72;57.36
59939;BME280;45801;51.810;19.444;2023-03-14T03:25:26;97233.38;;;9.70;57.27
59939;BME280;45801;51.810;19.444;2023-03-14T03:27:53;97233.52;;;9.68;57.41
59939;BME280;45801;51.810;19.444;2023-03-14T03:30:20;97229.77;;;9.63;57.18
59939;BME280;45801;51.810;19.444;2023-03-14T03:32:47;97223.02;;;9.55;57.21
59939;BME280;45801;51.810;19.444;2023-03-14T03:35:13;97215.11;;;9.51;57.40
59939;BME280;45801;51.810;19.444;2023-03-14T03:37:41;97215.25;;;9.49;57.31
59939;BME280;45801;51.810;19.444;2023-03-14T03:40:08;97215.57;;;9.47;57.30
59939;BME280;45801;51.810;19.444;2023-03-14T03:42:35;97206.48;;;9.47;57.37
59939;BME280;45801;51.810;19.444;2023-03-14T03:45:03;97203.54;;;9.48;57.46
59939;BME280;45801;51.810;19.444;2023-03-14T03:47:31;97201.10;;;9.49;57.58
59939;BME280;45801;51.810;19.444;2023-03-14T03:49:58;97198.48;;;9.49;57.41
59939;BME280;45801;51.810;19.444;2023-03-14T03:52:24;97202.94;;;9.44;57.24
59939;BME280;45801;51.810;19.444;2023-03-14T03:54:51;97209.68;;;9.40;57.43
59939;BME280;45801;51.810;19.444;2023-03-14T03:57:17;97208.30;;;9.41;57.54
59939;BME280;45801;51.810;19.444;2023-03-14T03:59:44;97196.93;;;9.40;57.71
59939;BME280;45801;51.810;19.444;2023-03-14T04:02:10;97193.76;;;9.38;57.48
59939;BME280;45801;51.810;19.444;2023-03-14T04:04:37;97199.89;;;9.39;57.68
59939;BME280;45801;51.810;19.444;2023-03-14T04:07:04;97203.91;;;9.40;57.30
59939;BME280;45801;51.810;19.444;2023-03-14T04:09:33;97200.20;;;9.37;57.14
59939;BME280;45801;51.810;19.444;2023-03-14T04:11:59;97197.06;;;9.37;57.64
59939;BME280;45801;51.810;19.444;2023-03-14T04:14:25;97200.55;;;9.36;57.42
59939;BME280;45801;51.810;19.444;2023-03-14T04:16:52;97192.48;;;9.35;57.50
59939;BME280;45801;51.810;19.444;2023-03-14T04:19:20;97180.73;;;9.31;57.60
59939;BME280;45801;51.810;19.444;2023-03-14T04:21:46;97176.27;;;9.26;57.59
59939;BME280;45801;51.810;19.444;2023-03-14T04:24:13;97170.48;;;9.24;57.80
59939;BME280;45801;51.810;19.444;2023-03-14T04:26:40;97166.96;;;9.22;57.91
59939;BME280;45801;51.810;19.444;2023-03-14T04:29:06;97170.83;;;9.23;57.90
59939;BME280;45801;51.810;19.444;2023-03-14T04:31:33;97165.58;;;9.23;57.81
59939;BME280;45801;51.810;19.444;2023-03-14T04:33:59;97163.31;;;9.24;57.75
59939;BME280;45801;51.810;19.444;2023-03-14T04:36:27;97162.84;;;9.27;57.97
59939;BME280;45801;51.810;19.444;2023-03-14T04:38:53;97152.35;;;9.27;58.10
59939;BME280;45801;51.810;19.444;2023-03-14T04:41:20;97146.77;;;9.27;57.95
59939;BME280;45801;51.810;19.444;2023-03-14T04:43:47;97141.66;;;9.24;57.67
59939;BME280;45801;51.810;19.444;2023-03-14T04:46:13;97133.77;;;9.21;57.99
59939;BME280;45801;51.810;19.444;2023-03-14T04:48:40;97135.33;;;9.20;58.27
59939;BME280;45801;51.810;19.444;2023-03-14T04:51:07;97134.10;;;9.20;58.21
59939;BME280;45801;51.810;19.444;2023-03-14T04:53:34;97133.37;;;9.18;58.41
59939;BME280;45801;51.810;19.444;2023-03-14T04:56:02;97128.80;;;9.17;58.38
59939;BME280;45801;51.810;19.444;2023-03-14T04:58:28;97126.90;;;9.18;58.39
59939;BME280;45801;51.810;19.444;2023-03-14T05:00:55;97126.23;;;9.19;58.27
59939;BME280;45801;51.810;19.444;2023-03-14T05:03:21;97120.78;;;9.17;58.30
59939;BME280;45801;51.810;19.444;2023-03-14T05:05:48;97118.70;;;9.18;58.56
59939;BME280;45801;51.810;19.444;2023-03-14T05:08:14;97115.06;;;9.20;58.13
59939;BME280;45801;51.810;19.444;2023-03-14T05:10:40;97108.80;;;9.22;58.29
59939;BME280;45801;51.810;19.444;2023-03-14T05:13:07;97108.45;;;9.23;58.24
59939;BME280;45801;51.810;19.444;2023-03-14T05:15:34;97108.98;;;9.24;58.34
59939;BME280;45801;51.810;19.444;2023-03-14T05:18:00;97107.09;;;9.25;58.54
59939;BME280;45801;51.810;19.444;2023-03-14T05:20:27;97104.30;;;9.25;58.49
59939;BME280;45801;51.810;19.444;2023-03-14T05:22:53;97101.02;;;9.27;58.40
59939;BME280;45801;51.810;19.444;2023-03-14T05:25:20;97098.06;;;9.29;58.11
59939;BME280;45801;51.810;19.444;2023-03-14T05:27:46;97090.21;;;9.29;58.43
59939;BME280;45801;51.810;19.444;2023-03-14T05:30:15;97085.33;;;9.30;58.40
59939;BME280;45801;51.810;19.444;2023-03-14T05:32:41;97073.44;;;9.29;58.42
59939;BME280;45801;51.810;19.444;2023-03-14T05:35:08;97036.58;;;9.29;58.57
59939;BME280;45801;51.810;19.444;2023-03-14T05:37:35;97023.11;;;9.28;58.50
59939;BME280;45801;51.810;19.444;2023-03-14T05:40:01;97018.40;;;9.28;58.53
59939;BME280;45801;51.810;19.444;2023-03-14T05:42:30;97027.86;;;9.30;58.67
59939;BME280;45801;51.810;19.444;2023-03-14T05:44:56;97041.85;;;9.31;58.63
59939;BME280;45801;51.810;19.444;2023-03-14T05:47:23;97046.76;;;9.32;58.50
59939;BME280;45801;51.810;19.444;2023-03-14T05:49:49;97046.06;;;9.33;58.53
59939;BME280;45801;51.810;19.444;2023-03-14T05:52:16;97044.33;;;9.34;58.46
59939;BME280;45801;51.810;19.444;2023-03-14T05:54:42;97043.15;;;9.38;58.42
59939;BME280;45801;51.810;19.444;2023-03-14T05:57:09;97042.48;;;9.41;58.47
59939;BME280;45801;51.810;19.444;2023-03-14T05:59:35;97040.44;;;9.44;58.50
59939;BME280;45801;51.810;19.444;2023-03-14T06:02:02;97037.31;;;9.46;58.62
59939;BME280;45801;51.810;19.444;2023-03-14T06:04:28;97038.41;;;9.49;58.43
59939;BME280;45801;51.810;19.444;2023-03-14T06:06:55;97047.90;;;9.54;58.14
59939;BME280;45801;51.810;19.444;2023-03-14T06:09:21;97057.88;;;9.56;58.14
59939;BME280;45801;51.810;19.444;2023-03-14T06:11:49;97056.70;;;9.60;57.92
59939;BME280;45801;51.810;19.444;2023-03-14T06:14:17;97060.43;;;9.64;58.13
59939;BME280;45801;51.810;19.444;2023-03-14T06:16:43;97068.00;;;9.68;57.84
59939;BME280;45801;51.810;19.444;2023-03-14T06:19:10;97065.77;;;9.73;58.01
59939;BME280;45801;51.810;19.444;2023-03-14T06:21:38;97062.67;;;9.77;57.77
59939;BME280;45801;51.810;19.444;2023-03-14T06:24:04;97060.09;;;9.80;57.66
59939;BME280;45801;51.810;19.444;2023-03-14T06:26:31;97059.61;;;9.85;57.61
59939;BME280;45801;51.810;19.444;2023-03-14T06:28:57;97061.94;;;9.89;57.74
59939;BME280;45801;51.810;19.444;2023-03-14T06:31:29;97066.16;;;9.92;57.30
59939;BME280;45801;51.810;19.444;2023-03-14T06:33:56;97065.69;;;9.97;57.53
59939;BME280;45801;51.810;19.444;2023-03-14T06:36:22;97065.05;;;10.01;57.79
59939;BME280;45801;51.810;19.444;2023-03-14T06:38:49;97059.66;;;10.06;57.69
59939;BME280;45801;51.810;19.444;2023-03-14T06:41:15;97057.77;;;10.09;57.35
59939;BME280;45801;51.810;19.444;2023-03-14T06:43:42;97055.36;;;10.13;57.56
59939;BME280;45801;51.810;19.444;2023-03-14T06:46:08;97056.27;;;10.15;57.30
59939;BME280;45801;51.810;19.444;2023-03-14T06:48:35;97060.13;;;10.17;57.19
59939;BME280;45801;51.810;19.444;2023-03-14T06:51:01;97060.36;;;10.22;56.77
59939;BME280;45801;51.810;19.444;2023-03-14T06:53:27;97062.13;;;10.24;56.45
59939;BME280;45801;51.810;19.444;2023-03-14T06:55:54;97061.83;;;10.30;56.85
59939;BME280;45801;51.810;19.444;2023-03-14T06:58:20;97061.20;;;10.35;57.05
59939;BME280;45801;51.810;19.444;2023-03-14T07:00:47;97062.65;;;10.39;56.60
59939;BME280;45801;51.810;19.444;2023-03-14T07:03:14;97062.14;;;10.40;56.30
59939;BME280;45801;51.810;19.444;2023-03-14T07:05:40;97070.74;;;10.44;56.41
59939;BME280;45801;51.810;19.444;2023-03-14T07:08:08;97071.83;;;10.49;55.97
59939;BME280;45801;51.810;19.444;2023-03-14T07:10:35;97070.48;;;10.53;56.08
59939;BME280;45801;51.810;19.444;2023-03-14T07:13:01;97066.81;;;10.55;56.40
59939;BME280;45801;51.810;19.444;2023-03-14T07:15:28;97062.13;;;10.60;56.27
59939;BME280;45801;51.810;19.444;2023-03-14T07:17:54;97060.77;;;10.64;55.79
59939;BME280;45801;51.810;19.444;2023-03-14T07:20:20;97069.02;;;10.68;55.57
59939;BME280;45801;51.810;19.444;2023-03-14T07:22:48;97073.59;;;10.70;55.44
59939;BME280;45801;51.810;19.444;2023-03-14T07:25:16;97074.64;;;10.71;55.27
59939;BME280;45801;51.810;19.444;2023-03-14T07:27:44;97076.42;;;10.73;55.74
59939;BME280;45801;51.810;19.444;2023-03-14T07:30:12;97076.08;;;10.74;55.59
59939;BME280;45801;51.810;19.444;2023-03-14T07:32:39;97088.86;;;10.75;55.27
59939;BME280;45801;51.810;19.444;2023-03-14T07:35:06;97099.05;;;10.78;55.22
59939;BME280;45801;51.810;19.444;2023-03-14T07:37:32;97103.65;;;10.84;55.53
59939;BME280;45801;51.810;19.444;2023-03-14T07:39:59;97116.13;;;10.90;55.31
59939;BME280;45801;51.810;19.444;2023-03-14T07:42:25;97113.89;;;10.96;55.20
59939;BME280;45801;51.810;19.444;2023-03-14T07:44:51;97110.59;;;11.00;54.96
59939;BME280;45801;51.810;19.444;2023-03-14T07:47:18;97099.77;;;11.04;54.61
59939;BME280;45801;51.810;19.444;2023-03-14T07:49:44;97098.73;;;11.08;54.63
59939;BME280;45801;51.810;19.444;2023-03-14T07:52:11;97097.36;;;11.11;54.78
59939;BME280;45801;51.810;19.444;2023-03-14T07:54:37;97099.98;;;11.10;55.00
59939;BME280;45801;51.810;19.444;2023-03-14T07:57:03;97110.70;;;11.14;54.77
59939;BME280;45801;51.810;19.444;2023-03-14T07:59:30;97105.96;;;11.12;54.67
59939;BME280;45801;51.810;19.444;2023-03-14T08:01:56;97113.84;;;11.12;54.73
59939;BME280;45801;51.810;19.444;2023-03-14T08:04:23;97112.29;;;11.16;54.87
59939;BME280;45801;51.810;19.444;2023-03-14T08:06:49;97113.54;;;11.18;54.96
59939;BME280;45801;51.810;19.444;2023-03-14T08:09:16;97112.84;;;11.20;54.95
59939;BME280;45801;51.810;19.444;2023-03-14T08:11:42;97117.37;;;11.17;54.92
59939;BME280;45801;51.810;19.444;2023-03-14T08:14:09;97119.84;;;11.18;54.93
59939;BME280;45801;51.810;19.444;2023-03-14T08:16:37;97117.38;;;11.18;54.80
59939;BME280;45801;51.810;19.444;2023-03-14T08:19:03;97112.14;;;11.21;54.80
59939;BME280;45801;51.810;19.444;2023-03-14T08:21:30;97108.66;;;11.25;55.21
59939;BME280;45801;51.810;19.444;2023-03-14T08:23:56;97105.19;;;11.30;55.21
59939;BME280;45801;51.810;19.444;2023-03-14T08:26:23;97108.02;;;11.34;55.41
59939;BME280;45801;51.810;19.444;2023-03-14T08:28:49;97107.33;;;11.37;55.24
59939;BME280;45801;51.810;19.444;2023-03-14T08:31:15;97117.52;;;11.42;55.24
59939;BME280;45801;51.810;19.444;2023-03-14T08:33:42;97113.38;;;11.48;55.14
59939;BME280;45801;51.810;19.444;2023-03-14T08:36:09;97112.32;;;11.48;54.73
59939;BME280;45801;51.810;19.444;2023-03-14T08:38:35;97112.85;;;11.52;55.06
59939;BME280;45801;51.810;19.444;2023-03-14T08:41:02;97105.68;;;11.57;54.99
59939;BME280;45801;51.810;19.444;2023-03-14T08:43:30;97106.95;;;11.60;54.85
59939;BME280;45801;51.810;19.444;2023-03-14T08:46:00;97101.52;;;11.63;54.39
59939;BME280;45801;51.810;19.444;2023-03-14T08:48:27;97096.98;;;11.67;54.63
59939;BME280;45801;51.810;19.444;2023-03-14T08:50:56;97088.23;;;11.67;54.62
59939;BME280;45801;51.810;19.444;2023-03-14T08:53:23;97088.59;;;11.72;54.84
59939;BME280;45801;51.810;19.444;2023-03-14T08:55:53;97092.64;;;11.76;54.71
59939;BME280;45801;51.810;19.444;2023-03-14T08:58:21;97094.04;;;11.79;54.97
59939;BME280;45801;51.810;19.444;2023-03-14T09:00:50;97095.64;;;11.82;54.69
59939;BME280;45801;51.810;19.444;2023-03-14T09:03:16;97092.67;;;11.85;54.42
59939;BME280;45801;51.810;19.444;2023-03-14T09:05:42;97090.02;;;11.84;54.02
59939;BME280;45801;51.810;19.444;2023-03-14T09:08:09;97089.00;;;11.87;54.04
59939;BME280;45801;51.810;19.444;2023-03-14T09:10:36;97082.16;;;11.87;54.10
59939;BME280;45801;51.810;19.444;2023-03-14T09:13:02;97088.48;;;11.88;54.40
59939;BME280;45801;51.810;19.444;2023-03-14T09:15:28;97086.94;;;11.94;54.40
59939;BME280;45801;51.810;19.444;2023-03-14T09:17:55;97073.64;;;11.99;54.41
59939;BME280;45801;51.810;19.444;2023-03-14T09:20:21;97068.73;;;12.04;54.55
59939;BME280;45801;51.810;19.444;2023-03-14T09:22:48;97071.20;;;12.09;54.54
59939;BME280;45801;51.810;19.444;2023-03-14T09:25:14;97081.90;;;12.15;54.21
59939;BME280;45801;51.810;19.444;2023-03-14T09:27:41;97097.56;;;12.20;54.08
59939;BME280;45801;51.810;19.444;2023-03-14T09:30:08;97095.64;;;12.26;54.23
59939;BME280;45801;51.810;19.444;2023-03-14T09:32:34;97088.10;;;12.33;53.70
59939;BME280;45801;51.810;19.444;2023-03-14T09:35:01;97085.66;;;12.41;53.72
59939;BME280;45801;51.810;19.444;2023-03-14T09:37:27;97086.36;;;12.49;52.64
59939;BME280;45801;51.810;19.444;2023-03-14T09:39:54;97091.82;;;12.58;52.59
59939;BME280;45801;51.810;19.444;2023-03-14T09:42:23;97086.73;;;12.68;53.17
59939;BME280;45801;51.810;19.444;2023-03-14T09:45:00;97088.30;;;12.78;53.47
59939;BME280;45801;51.810;19.444;2023-03-14T09:47:28;97095.17;;;12.89;52.85
59939;BME280;45801;51.810;19.444;2023-03-14T09:49:55;97096.57;;;12.99;52.66
59939;BME280;45801;51.810;19.444;2023-03-14T09:52:24;97083.03;;;13.07;52.26
59939;BME280;45801;51.810;19.444;2023-03-14T09:57:29;97058.77;;;13.13;52.30
59939;BME280;45801;51.810;19.444;2023-03-14T10:00:03;97057.55;;;13.12;52.03
59939;BME280;45801;51.810;19.444;2023-03-14T10:02:43;97060.00;;;13.11;51.90
59939;BME280;45801;51.810;19.444;2023-03-14T10:05:17;97064.05;;;13.06;51.45
59939;BME280;45801;51.810;19.444;2023-03-14T10:07:44;97066.33;;;13.06;51.85
59939;BME280;45801;51.810;19.444;2023-03-14T10:10:13;97069.33;;;13.03;52.15
59939;BME280;45801;51.810;19.444;2023-03-14T10:12:45;97065.13;;;12.99;51.70
59939;BME280;45801;51.810;19.444;2023-03-14T10:15:15;97067.59;;;12.95;52.00
59939;BME280;45801;51.810;19.444;2023-03-14T10:17:50;97068.27;;;12.91;52.30
59939;BME280;45801;51.810;19.444;2023-03-14T10:20:35;97061.44;;;12.85;52.41
59939;BME280;45801;51.810;19.444;2023-03-14T10:23:04;97066.70;;;12.82;52.76
59939;BME280;45801;51.810;19.444;2023-03-14T10:25:35;97069.88;;;12.78;52.49
59939;BME280;45801;51.810;19.444;2023-03-14T10:28:03;97076.55;;;12.78;53.16
59939;BME280;45801;51.810;19.444;2023-03-14T10:30:40;97081.46;;;12.81;52.78
59939;BME280;45801;51.810;19.444;2023-03-14T10:33:31;97081.65;;;12.78;52.12
59939;BME280;45801;51.810;19.444;2023-03-14T10:38:46;97084.63;;;12.72;52.32
59939;BME280;45801;51.810;19.444;2023-03-14T10:41:25;97081.30;;;12.70;52.10
59939;BME280;45801;51.810;19.444;2023-03-14T10:44:00;97078.66;;;12.67;52.61
59939;BME280;45801;51.810;19.444;2023-03-14T10:46:31;97081.30;;;12.65;52.69
59939;BME280;45801;51.810;19.444;2023-03-14T10:49:04;97082.87;;;12.66;52.60
59939;BME280;45801;51.810;19.444;2023-03-14T10:51:31;97092.17;;;12.59;51.98
59939;BME280;45801;51.810;19.444;2023-03-14T10:54:03;97092.69;;;12.53;52.32
59939;BME280;45801;51.810;19.444;2023-03-14T10:56:38;97097.59;;;12.44;52.98
59939;BME280;45801;51.810;19.444;2023-03-14T10:59:12;97099.52;;;12.37;52.74
59939;BME280;45801;51.810;19.444;2023-03-14T11:01:57;97103.38;;;12.33;52.69
59939;BME280;45801;51.810;19.444;2023-03-14T11:04:52;97104.94;;;12.23;53.15
59939;BME280;45801;51.810;19.444;2023-03-14T11:07:33;97105.95;;;12.11;53.44
59939;BME280;45801;51.810;19.444;2023-03-14T11:10:19;97112.77;;;12.06;53.60
59939;BME280;45801;51.810;19.444;2023-03-14T11:12:55;97125.39;;;12.00;53.94
59939;BME280;45801;51.810;19.444;2023-03-14T11:18:17;97120.40;;;11.88;54.86
59939;BME280;45801;51.810;19.444;2023-03-14T11:20:59;97121.93;;;11.80;55.58
59939;BME280;45801;51.810;19.444;2023-03-14T11:23:58;97128.03;;;11.70;56.94
59939;BME280;45801;51.810;19.444;2023-03-14T11:35:03;97148.70;;;11.37;59.79
59939;BME280;45801;51.810;19.444;2023-03-14T11:37:36;97156.52;;;11.28;60.64
59939;BME280;45801;51.810;19.444;2023-03-14T11:40:18;97151.26;;;11.27;61.17
59939;BME280;45801;51.810;19.444;2023-03-14T11:43:00;97157.68;;;11.18;63.25
59939;BME280;45801;51.810;19.444;2023-03-14T11:45:38;97155.68;;;11.08;64.40
59939;BME280;45801;51.810;19.444;2023-03-14T11:48:17;97159.31;;;11.02;64.00
59939;BME280;45801;51.810;19.444;2023-03-14T11:50:48;97161.85;;;10.93;64.66
59939;BME280;45801;51.810;19.444;2023-03-14T11:55:57;97155.73;;;10.93;65.54
59939;BME280;45801;51.810;19.444;2023-03-14T11:58:32;97149.58;;;10.90;66.57
59939;BME280;45801;51.810;19.444;2023-03-14T12:01:08;97144.27;;;10.85;67.09
59939;BME280;45801;51.810;19.444;2023-03-14T12:04:30;97141.76;;;10.77;68.41
59939;BME280;45801;51.810;19.444;2023-03-14T12:06:44;97139.97;;;10.73;68.92
59939;BME280;45801;51.810;19.444;2023-03-14T12:09:13;97134.68;;;10.70;68.49
59939;BME280;45801;51.810;19.444;2023-03-14T12:11:55;97135.89;;;10.67;68.69
59939;BME280;45801;51.810;19.444;2023-03-14T12:14:26;97137.95;;;10.64;68.50
59939;BME280;45801;51.810;19.444;2023-03-14T12:17:36;97136.17;;;10.59;69.94
59939;BME280;45801;51.810;19.444;2023-03-14T12:20:21;97129.33;;;10.57;69.69
59939;BME280;45801;51.810;19.444;2023-03-14T12:23:03;97124.19;;;10.50;71.83
59939;BME280;45801;51.810;19.444;2023-03-14T12:25:32;97121.55;;;10.49;71.10
59939;BME280;45801;51.810;19.444;2023-03-14T12:30:29;97116.08;;;10.45;71.63
59939;BME280;45801;51.810;19.444;2023-03-14T12:35:47;97119.56;;;10.43;72.07
59939;BME280;45801;51.810;19.444;2023-03-14T12:43:43;97116.17;;;10.37;72.67
59939;BME280;45801;51.810;19.444;2023-03-14T12:46:24;97115.27;;;10.35;72.72
59939;BME280;45801;51.810;19.444;2023-03-14T12:51:45;97105.70;;;10.38;73.16
59939;BME280;45801;51.810;19.444;2023-03-14T12:54:24;97100.41;;;10.36;73.31
59939;BME280;45801;51.810;19.444;2023-03-14T12:57:20;97100.02;;;10.34;74.33
59939;BME280;45801;51.810;19.444;2023-03-14T12:59:59;97102.80;;;10.31;74.45
59939;BME280;45801;51.810;19.444;2023-03-14T13:02:30;97100.46;;;10.26;74.51
59939;BME280;45801;51.810;19.444;2023-03-14T13:10:19;97073.48;;;10.21;74.53
59939;BME280;45801;51.810;19.444;2023-03-14T13:12:54;97073.41;;;10.16;75.82
59939;BME280;45801;51.810;19.444;2023-03-14T13:15:34;97074.39;;;10.10;75.89
59939;BME280;45801;51.810;19.444;2023-03-14T13:18:08;97078.27;;;10.12;75.19
59939;BME280;45801;51.810;19.444;2023-03-14T13:20:38;97080.88;;;10.09;75.56
59939;BME280;45801;51.810;19.444;2023-03-14T13:23:26;97084.38;;;10.11;74.57
59939;BME280;45801;51.810;19.444;2023-03-14T13:25:53;97084.95;;;10.16;73.89
59939;BME280;45801;51.810;19.444;2023-03-14T13:28:21;97079.76;;;10.19;74.52
59939;BME280;45801;51.810;19.444;2023-03-14T13:30:59;97082.17;;;10.17;75.03
59939;BME280;45801;51.810;19.444;2023-03-14T13:33:26;97080.95;;;10.17;74.43
59939;BME280;45801;51.810;19.444;2023-03-14T13:35:59;97077.27;;;10.17;73.53
59939;BME280;45801;51.810;19.444;2023-03-14T13:38:26;97079.52;;;10.13;75.03
59939;BME280;45801;51.810;19.444;2023-03-14T13:40:58;97077.38;;;10.10;75.44
59939;BME280;45801;51.810;19.444;2023-03-14T13:43:34;97075.78;;;10.09;75.22
59939;BME280;45801;51.810;19.444;2023-03-14T13:46:04;97076.23;;;10.01;76.60
59939;BME280;45801;51.810;19.444;2023-03-14T13:48:33;97079.92;;;10.02;75.29